Laila — CQDP — position and weather

sailwx.info

Track history (hours):
 
Tides and Currents Weather Stations Pressure Air Temp Water Temp Dewpoint Dewpoint Depression Visibility Wind Speed Wind Dir Waves Ship Positions

Laila

Last reported at 2018-Apr-19 21:33 UTC. Time now 2018-Apr-24 18:34 UTC.
Position S 06°28' E 113°43'.

Length 216 m; draft 8.6 m.

Type: Ship (hazmat cat A). MMSI: 255805792.

Date/timePositionNaut miles runAvg speedWind from/ knotsBaromVisibWave heightAir tempDewpointWater temp
2018-Apr-19 21:33S 06°28' E 113°43'3213.7
2018-Apr-19 19:15S 06°33' E 113°12'1413.9
2018-Apr-19 18:13S 06°36' E 112°58'513.8
2018-Apr-19 17:49S 06°39' E 112°53'513.5
2018-Apr-19 17:28S 06°42' E 112°50'913.5
2018-Apr-19 16:46S 06°51' E 112°45'411.3
2018-Apr-19 16:26S 06°54' E 112°44'614.2
2018-Apr-19 16:00S 06°60' E 112°41'814.5
2018-Apr-19 15:27S 07°08' E 112°39'5 9.8
2018-Apr-19 14:56S 07°12' E 112°43'0 0.0
2018-Apr-19 06:35S 07°12' E 112°42'0 0.0
2018-Apr-19 06:23S 07°12' E 112°42'0 0.0
2018-Apr-19 02:56S 07°12' E 112°42'0 0.0
2018-Apr-19 00:47S 07°12' E 112°42'0 0.2
2018-Apr-19 00:30S 07°12' E 112°42'0 0.0
2018-Apr-18 23:59S 07°12' E 112°42'0 0.0
2018-Apr-18 23:28S 07°12' E 112°42'0 0.1
2018-Apr-18 22:59S 07°12' E 112°42'1 1.5
2018-Apr-18 22:30S 07°11' E 112°42'4 8.8
2018-Apr-18 22:00S 07°08' E 112°39'712.5
2018-Apr-18 21:28S 07°01' E 112°40'612.0
2018-Apr-18 20:58S 06°56' E 112°43'5 9.9
2018-Apr-18 20:30S 06°51' E 112°45'1 1.4
2018-Apr-18 20:00S 06°52' E 112°46'2 0.5
2018-Apr-18 14:47S 06°53' E 112°48'0 0.0
2018-Apr-18 14:29S 06°53' E 112°48'0 0.0
2018-Apr-18 13:59S 06°53' E 112°48'0 0.0
2018-Apr-18 13:29S 06°53' E 112°48'0 0.0
2018-Apr-18 12:59S 06°53' E 112°48'0 0.0
2018-Apr-18 12:29S 06°53' E 112°48'0 0.0
2018-Apr-18 11:59S 06°53' E 112°48'0 0.1
2018-Apr-18 11:29S 06°53' E 112°48'0 0.1
2018-Apr-18 10:46S 06°53' E 112°48'0 0.2
2018-Apr-18 10:29S 06°53' E 112°48'0 0.0
2018-Apr-18 09:56S 06°53' E 112°48'0 0.0
2018-Apr-18 09:26S 06°53' E 112°48'0 0.0
2018-Apr-18 08:59S 06°53' E 112°48'0 0.1
2018-Apr-18 08:29S 06°53' E 112°48'0 0.0
2018-Apr-18 07:59S 06°53' E 112°48'0 0.0
2018-Apr-18 07:29S 06°53' E 112°48'0 0.0
2018-Apr-18 06:59S 06°53' E 112°48'0 0.0
2018-Apr-18 06:26S 06°53' E 112°48'0 0.0
2018-Apr-18 05:56S 06°53' E 112°48'0 0.1
2018-Apr-18 05:29S 06°53' E 112°48'0 0.1
2018-Apr-18 04:59S 06°53' E 112°48'0 0.1
2018-Apr-18 04:29S 06°53' E 112°48'0 0.1
2018-Apr-18 03:56S 06°53' E 112°48'1 1.9
2018-Apr-18 03:26S 06°52' E 112°47'4 9.7
2018-Apr-18 03:00S 06°48' E 112°46'713.5
2018-Apr-18 02:30S 06°42' E 112°42'814.7
2018-Apr-18 01:59S 06°40' E 112°35'  
Track history (hours):
 
Tides and Currents Weather Stations Pressure Air Temp Water Temp Dewpoint Dewpoint Depression Visibility Wind Speed Wind Dir Waves Ship Positions

Laila

Last reported at 2018-Apr-19 21:33 UTC. Time now 2018-Apr-24 18:34 UTC.
Position S 06°28' E 113°43'.

Length 216 m; draft 8.6 m.

Type: Ship (hazmat cat A). MMSI: 255805792.

Date/timePositionNaut miles runAvg speedWind from/ knotsBaromVisibWave heightAir tempDewpointWater temp
2018-Apr-19 21:33S 06°28' E 113°43'3213.7
2018-Apr-19 19:15S 06°33' E 113°12'1413.9
2018-Apr-19 18:13S 06°36' E 112°58'513.8
2018-Apr-19 17:49S 06°39' E 112°53'513.5
2018-Apr-19 17:28S 06°42' E 112°50'913.5
2018-Apr-19 16:46S 06°51' E 112°45'411.3
2018-Apr-19 16:26S 06°54' E 112°44'614.2
2018-Apr-19 16:00S 06°60' E 112°41'814.5
2018-Apr-19 15:27S 07°08' E 112°39'5 9.8
2018-Apr-19 14:56S 07°12' E 112°43'0 0.0
2018-Apr-19 06:35S 07°12' E 112°42'0 0.0
2018-Apr-19 06:23S 07°12' E 112°42'0 0.0
2018-Apr-19 02:56S 07°12' E 112°42'0 0.0
2018-Apr-19 00:47S 07°12' E 112°42'0 0.2
2018-Apr-19 00:30S 07°12' E 112°42'0 0.0
2018-Apr-18 23:59S 07°12' E 112°42'0 0.0
2018-Apr-18 23:28S 07°12' E 112°42'0 0.1
2018-Apr-18 22:59S 07°12' E 112°42'1 1.5
2018-Apr-18 22:30S 07°11' E 112°42'4 8.8
2018-Apr-18 22:00S 07°08' E 112°39'712.5
2018-Apr-18 21:28S 07°01' E 112°40'612.0
2018-Apr-18 20:58S 06°56' E 112°43'5 9.9
2018-Apr-18 20:30S 06°51' E 112°45'1 1.4
2018-Apr-18 20:00S 06°52' E 112°46'2 0.5
2018-Apr-18 14:47S 06°53' E 112°48'0 0.0
2018-Apr-18 14:29S 06°53' E 112°48'0 0.0
2018-Apr-18 13:59S 06°53' E 112°48'0 0.0
2018-Apr-18 13:29S 06°53' E 112°48'0 0.0
2018-Apr-18 12:59S 06°53' E 112°48'0 0.0
2018-Apr-18 12:29S 06°53' E 112°48'0 0.0
2018-Apr-18 11:59S 06°53' E 112°48'0 0.1
2018-Apr-18 11:29S 06°53' E 112°48'0 0.1
2018-Apr-18 10:46S 06°53' E 112°48'0 0.2
2018-Apr-18 10:29S 06°53' E 112°48'0 0.0
2018-Apr-18 09:56S 06°53' E 112°48'0 0.0
2018-Apr-18 09:26S 06°53' E 112°48'0 0.0
2018-Apr-18 08:59S 06°53' E 112°48'0 0.1
2018-Apr-18 08:29S 06°53' E 112°48'0 0.0
2018-Apr-18 07:59S 06°53' E 112°48'0 0.0
2018-Apr-18 07:29S 06°53' E 112°48'0 0.0
2018-Apr-18 06:59S 06°53' E 112°48'0 0.0
2018-Apr-18 06:26S 06°53' E 112°48'0 0.0
2018-Apr-18 05:56S 06°53' E 112°48'0 0.1
2018-Apr-18 05:29S 06°53' E 112°48'0 0.1
2018-Apr-18 04:59S 06°53' E 112°48'0 0.1
2018-Apr-18 04:29S 06°53' E 112°48'0 0.1
2018-Apr-18 03:56S 06°53' E 112°48'1 1.9
2018-Apr-18 03:26S 06°52' E 112°47'4 9.7
2018-Apr-18 03:00S 06°48' E 112°46'713.5
2018-Apr-18 02:30S 06°42' E 112°42'814.7
2018-Apr-18 01:59S 06°40' E 112°35'  

Dump ship's entire track history